createdAt,value
2022-11-27T10:20:26.120Z,33.20
2022-11-27T10:20:56.910Z,31.70
2022-11-27T10:21:27.750Z,32.60
2022-11-27T10:21:58.522Z,30.20
2022-11-27T10:22:29.333Z,28.80
2022-11-27T10:23:00.120Z,27.10
2022-11-27T10:23:30.901Z,25.80
2022-11-27T10:24:01.700Z,23.10
2022-11-27T10:24:32.479Z,22.50
2022-11-27T10:25:03.317Z,23.50
2022-11-27T10:25:34.132Z,23.90
2022-11-27T10:26:04.937Z,22.10
2022-11-27T10:26:35.731Z,24.30
2022-11-27T10:27:06.543Z,25.10
2022-11-27T10:27:37.333Z,23.70
2022-11-27T10:28:08.159Z,23.90
2022-11-27T10:28:38.914Z,24.50
2022-11-27T10:29:09.745Z,24.20
2022-11-27T10:29:44.374Z,23.10
2022-11-27T10:30:13.172Z,21.30
2022-11-27T10:30:44.033Z,23.10
2022-11-27T10:31:14.945Z,24.90
2022-11-27T10:31:45.891Z,24.10
2022-11-27T10:32:46.947Z,24.70
2022-11-27T10:32:56.897Z,21.50
2022-11-27T10:33:22.031Z,21.80
2022-11-27T10:33:52.837Z,21.50
2022-11-27T10:34:23.648Z,20.10
2022-11-27T10:34:54.425Z,20.00
2022-11-27T10:35:25.264Z,19.90
2022-11-27T10:35:56.073Z,21.50
2022-11-27T10:36:26.887Z,21.60
2022-11-27T10:36:57.694Z,22.00
2022-11-27T10:37:28.504Z,20.10
2022-11-27T10:38:03.699Z,20.70
2022-11-27T12:30:54.998Z,19.70
2022-11-27T12:31:25.860Z,37.70
2022-11-27T12:31:56.761Z,35.90
2022-11-27T12:32:27.616Z,37.70
2022-11-27T12:32:58.454Z,31.80
2022-11-27T12:33:29.233Z,23.40
2022-11-27T12:34:00.055Z,18.70
2022-11-27T12:34:30.900Z,18.50
2022-11-27T12:35:01.783Z,18.70
2022-11-27T12:35:32.653Z,17.20
2022-11-27T12:36:03.485Z,18.80
2022-11-27T12:36:34.291Z,22.40
2022-11-27T12:37:05.828Z,22.10
2022-11-27T12:37:37.847Z,25.10
2022-11-27T12:38:08.655Z,27.80
2022-11-27T12:38:39.513Z,21.10
2022-11-27T12:39:10.364Z,18.50
2022-11-27T12:39:41.218Z,18.20
2022-11-27T12:40:12.009Z,15.90
2022-11-27T12:40:42.805Z,16.70
2022-11-27T12:41:13.605Z,18.50
2022-11-27T12:41:44.425Z,17.50
2022-11-27T12:42:20.433Z,19.40
2022-11-27T12:42:47.943Z,19.50
2022-11-27T12:43:18.748Z,16.20
2022-11-27T12:43:49.578Z,15.70
2022-11-27T12:44:20.416Z,14.90
2022-11-27T12:44:51.269Z,16.90
2022-11-27T12:45:22.057Z,17.00
2022-11-27T12:45:52.923Z,20.10
2022-11-27T12:46:23.960Z,43.50
2022-11-27T12:46:54.865Z,33.50
2022-11-27T12:47:25.703Z,25.10
2022-11-27T12:47:56.468Z,15.80
2022-11-27T12:48:27.296Z,16.60
2022-11-27T12:48:58.092Z,24.80
2022-11-27T12:49:28.884Z,18.70
2022-11-27T12:49:59.719Z,14.30
2022-11-27T12:50:30.573Z,14.90
2022-11-27T12:51:01.361Z,15.10
2022-11-27T12:51:32.143Z,15.30
2022-11-27T12:52:02.980Z,14.50
2022-11-27T12:52:33.809Z,15.90
2022-11-27T12:53:04.657Z,18.70
2022-11-27T12:53:35.460Z,16.10
2022-11-27T12:54:06.297Z,16.30
2022-11-27T12:54:37.122Z,18.10
2022-11-27T12:55:07.948Z,14.70
2022-11-27T12:55:38.759Z,15.40
2022-11-27T12:56:09.577Z,16.50
2022-11-27T12:56:40.390Z,19.00
2022-11-27T12:57:11.229Z,20.10
2022-11-27T12:57:42.049Z,14.50
2022-11-27T12:58:12.879Z,17.40
2022-11-27T12:58:43.705Z,17.40
2022-11-27T12:59:14.510Z,19.80
2022-11-27T12:59:45.383Z,21.00
2022-11-27T13:00:16.190Z,21.50
2022-11-27T13:00:47.031Z,33.70
2022-11-27T13:01:20.367Z,21.30
2022-11-27T13:01:50.629Z,15.40
2022-11-27T13:02:21.592Z,15.30
2022-11-27T13:02:52.491Z,14.90
2022-11-27T13:03:23.301Z,13.80
2022-11-27T13:03:54.095Z,14.70
2022-11-27T13:04:24.907Z,14.10
2022-11-27T13:04:55.821Z,13.80
2022-11-27T13:05:26.617Z,14.20
2022-11-27T13:05:57.451Z,13.80
2022-11-27T13:06:28.294Z,13.80
2022-11-27T13:06:59.071Z,15.60
2022-11-27T13:07:29.953Z,17.70
2022-11-27T13:08:00.851Z,14.00
2022-11-27T13:08:31.692Z,13.80
2022-11-27T13:09:02.482Z,14.40
2022-11-27T13:09:33.282Z,14.20
2022-11-27T13:10:04.143Z,13.60
2022-11-27T13:10:34.971Z,13.80
2022-11-27T13:11:05.754Z,14.50
2022-11-27T13:11:36.553Z,15.30
2022-11-27T13:12:07.351Z,14.60
2022-11-27T13:12:38.160Z,14.80
2022-11-27T13:13:08.972Z,13.80
2022-11-27T13:13:39.774Z,13.10
2022-11-27T13:14:10.582Z,13.60
2022-11-27T13:14:41.738Z,14.00
2022-11-27T13:15:12.817Z,15.00
2022-11-27T13:15:43.639Z,15.50
2022-11-27T13:16:14.484Z,14.30
2022-11-27T13:16:45.409Z,13.70
2022-11-27T13:17:16.294Z,13.50
2022-11-27T13:17:47.082Z,14.80
2022-11-27T13:18:17.884Z,17.30
2022-11-27T13:18:48.711Z,14.30
2022-11-27T13:19:19.524Z,13.90
2022-11-27T13:19:50.346Z,15.50
2022-11-27T13:20:21.175Z,16.70
2022-11-27T13:20:52.782Z,16.70
2022-11-27T13:21:23.748Z,17.20
2022-11-27T13:21:54.567Z,17.10
2022-11-27T13:22:25.388Z,16.40
2022-11-27T13:22:56.221Z,14.70
2022-11-27T13:23:27.019Z,13.60
2022-11-27T13:23:57.816Z,15.30
2022-11-27T13:24:28.635Z,14.50
2022-11-27T13:24:59.528Z,13.20
2022-11-27T13:25:30.344Z,13.80
2022-11-27T13:26:01.221Z,14.00
2022-11-27T13:26:32.026Z,16.40
2022-11-27T13:27:02.830Z,17.10
2022-11-27T13:27:33.637Z,14.80
2022-11-27T13:28:04.448Z,14.30
2022-11-27T13:28:35.245Z,13.30
2022-11-27T13:29:06.068Z,14.40
2022-11-27T13:29:36.926Z,15.90
2022-11-27T13:30:07.746Z,14.00
2022-11-27T13:30:38.542Z,13.90
2022-11-27T13:31:09.373Z,14.90
2022-11-27T13:31:40.273Z,14.50
2022-11-27T13:32:11.105Z,14.80
2022-11-27T13:32:41.976Z,14.40
2022-11-27T13:33:12.796Z,13.60
2022-11-27T13:33:43.637Z,14.20
2022-11-27T13:34:14.456Z,15.60
2022-11-27T13:34:45.282Z,14.80
2022-11-27T13:35:16.139Z,14.10
2022-11-27T13:35:46.967Z,13.80
2022-11-27T13:36:17.798Z,14.20
2022-11-27T13:36:48.606Z,14.50
2022-11-27T13:37:19.407Z,14.30
2022-11-27T13:37:50.260Z,14.70
2022-11-27T13:38:21.060Z,15.20
2022-11-27T13:38:51.890Z,14.40
2022-11-27T13:39:22.699Z,14.60
2022-11-27T13:39:53.487Z,15.90
2022-11-27T13:40:24.303Z,14.90
2022-11-27T13:40:55.097Z,16.20
2022-11-27T13:41:25.916Z,15.60
2022-11-27T13:41:56.733Z,16.20
2022-11-27T13:42:27.560Z,14.80
2022-11-27T13:42:58.346Z,14.80
2022-11-27T13:43:29.168Z,14.90
2022-11-27T13:44:00.009Z,14.40
2022-11-27T13:44:30.840Z,13.20
2022-11-27T13:45:01.681Z,14.90
2022-11-27T13:45:32.599Z,14.70
2022-11-27T13:46:03.562Z,15.40
2022-11-27T13:46:34.456Z,16.60
2022-11-27T13:47:05.304Z,17.40
2022-11-27T13:47:36.149Z,14.40
2022-11-27T13:48:06.998Z,14.20
2022-11-27T13:48:37.837Z,14.20
2022-11-27T13:49:08.642Z,16.10
2022-11-27T13:49:39.484Z,16.00
2022-11-27T13:50:10.322Z,15.90
2022-11-27T13:50:41.160Z,15.10
2022-11-27T13:51:12.068Z,14.90
2022-11-27T13:51:42.886Z,16.10
2022-11-27T13:52:13.706Z,16.80
2022-11-27T13:52:44.494Z,14.50
2022-11-27T13:53:15.253Z,15.20
2022-11-27T13:53:46.080Z,16.20
2022-11-27T13:54:16.881Z,17.40
2022-11-27T13:54:47.694Z,15.00
2022-11-27T13:55:18.551Z,14.10
2022-11-27T13:55:49.373Z,13.50
2022-11-27T13:56:20.192Z,13.30
2022-11-27T13:56:51.002Z,14.30
2022-11-27T13:57:21.823Z,14.70
2022-11-27T13:57:52.642Z,16.10
2022-11-27T13:58:23.480Z,15.60
2022-11-27T13:58:54.294Z,16.30
2022-11-27T13:59:25.104Z,17.70
2022-11-27T13:59:55.936Z,16.10
2022-11-27T14:00:26.801Z,16.70
2022-11-27T14:00:57.809Z,17.50
2022-11-27T14:01:28.768Z,19.40
2022-11-27T14:01:59.715Z,20.20
2022-11-27T14:02:30.563Z,22.20
2022-11-27T14:03:01.416Z,22.10
2022-11-27T14:03:32.234Z,21.90
2022-11-27T14:04:03.016Z,17.80
2022-11-27T14:04:33.831Z,18.80
2022-11-27T14:05:04.668Z,17.00
2022-11-27T14:05:35.501Z,16.70
2022-11-27T14:06:06.284Z,14.60
2022-11-27T14:06:37.134Z,15.30
2022-11-27T14:07:07.964Z,16.40
2022-11-27T14:07:38.840Z,13.90
2022-11-27T14:08:09.674Z,16.50
2022-11-27T14:08:40.483Z,16.70
2022-11-27T14:09:11.293Z,16.90
2022-11-27T14:09:42.121Z,15.50
2022-11-27T14:10:12.981Z,15.40
2022-11-27T14:10:43.837Z,17.50
2022-11-27T14:11:14.640Z,15.10
2022-11-27T14:11:45.456Z,17.60
2022-11-27T14:12:16.263Z,15.30
2022-11-27T14:12:47.054Z,15.70
2022-11-27T14:13:17.864Z,13.50
2022-11-27T14:13:48.708Z,14.30
2022-11-27T14:14:19.525Z,14.50
2022-11-27T14:14:50.318Z,14.40
2022-11-27T14:15:21.175Z,17.00
2022-11-27T14:15:52.047Z,14.40
2022-11-27T14:16:22.984Z,14.60
2022-11-27T14:16:53.783Z,14.60
2022-11-27T14:17:24.554Z,14.60
2022-11-27T14:17:55.749Z,16.00
2022-11-27T14:18:27.304Z,16.50
2022-11-27T14:18:58.603Z,14.90
2022-11-27T14:19:33.885Z,19.40
2022-11-27T14:20:02.774Z,14.30
2022-11-27T14:20:34.032Z,14.40
2022-11-27T14:21:05.262Z,13.70
2022-11-27T14:21:36.514Z,14.90
2022-11-27T14:22:07.531Z,14.20
2022-11-27T14:22:54.220Z,14.50
2022-11-27T14:24:58.922Z,13.70
2022-11-27T14:25:30.121Z,14.10
2022-11-27T14:26:01.071Z,15.20
2022-11-27T14:26:32.215Z,15.70
2022-11-27T14:27:03.447Z,16.30
2022-11-27T14:27:34.756Z,17.40
2022-11-27T14:28:05.785Z,18.20
2022-11-27T14:28:37.181Z,16.30
2022-11-27T14:29:08.513Z,16.30
2022-11-27T14:29:39.569Z,15.00
2022-11-27T14:30:10.496Z,14.30
2022-11-27T14:30:41.529Z,15.60
2022-11-27T14:31:13.100Z,14.80
2022-11-27T14:31:44.863Z,15.40
2022-11-27T14:32:16.139Z,17.40
2022-11-27T14:32:47.835Z,15.30
2022-11-27T14:33:19.109Z,16.00
2022-11-27T14:34:14.126Z,16.40
2022-11-27T14:34:24.631Z,15.90
2022-11-27T14:34:55.841Z,16.50
2022-11-27T14:35:27.037Z,14.90
2022-11-27T14:35:58.173Z,14.10
2022-11-27T14:36:29.473Z,15.10
2022-11-27T14:37:00.538Z,14.90
2022-11-27T14:37:31.808Z,14.40
2022-11-27T14:38:02.947Z,15.40
2022-11-27T14:38:33.908Z,14.90
2022-11-27T14:39:05.226Z,14.60
2022-11-27T14:39:38.001Z,15.30
2022-11-27T14:40:08.973Z,16.10
2022-11-27T14:40:40.622Z,13.50
2022-11-27T14:41:12.471Z,15.00
2022-11-27T14:41:44.582Z,14.70
2022-11-27T14:42:16.070Z,15.30
2022-11-27T14:42:47.805Z,14.90
2022-11-27T14:43:23.312Z,15.70
2022-11-27T14:43:51.493Z,15.30
2022-11-27T14:44:22.879Z,15.60
2022-11-27T14:44:53.996Z,16.10
2022-11-27T14:45:25.280Z,17.70
2022-11-27T14:45:56.985Z,16.80
2022-11-27T14:46:28.162Z,16.20
2022-11-27T14:46:59.637Z,15.20
2022-11-27T14:47:31.353Z,15.00
2022-11-27T14:48:02.845Z,15.60
2022-11-27T14:48:34.138Z,15.70
2022-11-27T14:49:05.472Z,15.10
2022-11-27T14:49:36.952Z,14.50
2022-11-27T14:50:07.960Z,15.90
2022-11-27T14:50:39.186Z,16.00
2022-11-27T14:51:11.186Z,17.00
2022-11-27T14:51:42.379Z,16.40
2022-11-27T14:52:14.345Z,15.60
2022-11-27T14:52:45.249Z,16.20
2022-11-27T14:53:16.552Z,17.30
2022-11-27T14:53:47.778Z,17.00
2022-11-27T14:54:19.041Z,16.40
2022-11-27T14:54:51.351Z,16.00
2022-11-27T14:55:23.243Z,16.20
2022-11-27T14:55:54.645Z,17.00
2022-11-27T14:56:26.547Z,15.80
2022-11-27T14:56:57.778Z,15.90
2022-11-27T14:57:29.156Z,14.70
2022-11-27T14:58:01.115Z,14.30
2022-11-27T14:58:33.010Z,15.60
2022-11-27T14:59:04.377Z,15.70
2022-11-27T14:59:35.789Z,16.40
2022-11-27T15:00:07.536Z,16.70
2022-11-27T15:00:38.829Z,15.90
2022-11-27T15:01:09.942Z,14.80
2022-11-27T15:01:41.689Z,16.40
2022-11-27T15:02:13.981Z,16.40
2022-11-27T15:02:47.070Z,14.60
2022-11-27T15:03:15.288Z,14.30
2022-11-27T15:03:46.939Z,16.10
2022-11-27T15:11:56.790Z,16.60
2022-11-27T15:12:25.596Z,16.20
2022-11-27T15:12:56.712Z,15.70
2022-11-27T15:13:27.575Z,15.80
2022-11-27T15:13:59.088Z,15.70
2022-11-27T15:14:30.261Z,15.40
2022-11-27T15:15:01.419Z,15.40
2022-11-27T15:15:32.782Z,15.40
2022-11-27T15:16:03.925Z,16.20
2022-11-27T15:16:34.958Z,15.80
2022-11-27T15:17:06.360Z,15.80
2022-11-27T15:17:37.685Z,16.20
2022-11-27T15:18:08.846Z,15.90
2022-11-27T15:18:40.190Z,17.50
2022-11-27T15:19:11.357Z,17.10
2022-11-27T15:19:42.525Z,16.90
2022-11-27T15:20:13.869Z,17.10
2022-11-27T15:20:45.018Z,16.80
2022-11-27T15:21:16.039Z,15.90
2022-11-27T15:21:46.983Z,15.30
2022-11-27T15:22:17.865Z,15.40
2022-11-27T15:22:48.993Z,15.40
2022-11-27T15:23:20.089Z,15.90
2022-11-27T15:23:51.127Z,17.00
2022-11-27T15:24:22.691Z,16.30
2022-11-27T15:24:53.641Z,16.40
2022-11-27T15:25:24.840Z,15.80
2022-11-27T15:25:55.955Z,17.70
2022-11-27T15:26:26.819Z,18.90
2022-11-27T15:26:57.843Z,20.30
2022-11-27T15:27:28.934Z,15.50
2022-11-27T15:27:59.919Z,15.30
2022-11-27T15:28:31.035Z,14.70
2022-11-27T15:29:02.409Z,15.00
2022-11-27T15:29:33.802Z,14.60
2022-11-27T15:30:04.774Z,15.20
2022-11-27T15:30:36.089Z,16.10
2022-11-27T15:31:07.330Z,15.40
2022-11-27T15:31:38.597Z,17.80
2022-11-27T15:32:09.733Z,16.40
2022-11-27T15:32:41.108Z,14.70
2022-11-27T15:33:12.420Z,14.50
2022-11-27T15:33:43.366Z,15.50
2022-11-27T15:34:14.839Z,16.60
2022-11-27T15:34:46.064Z,16.40
2022-11-27T15:35:16.939Z,15.60
2022-11-27T15:35:53.792Z,14.40
2022-11-27T15:36:18.966Z,15.10
2022-11-27T15:36:49.962Z,16.40
2022-11-27T15:37:21.038Z,17.20
2022-11-27T15:37:53.240Z,14.70
2022-11-27T15:38:25.127Z,14.70
2022-11-27T15:38:56.110Z,14.70
2022-11-27T15:39:27.313Z,15.30
2022-11-27T15:39:59.183Z,15.40
2022-11-27T15:40:30.604Z,15.00
2022-11-27T15:41:01.677Z,16.20
2022-11-27T15:41:33.145Z,16.60
2022-11-27T15:42:04.070Z,14.80
2022-11-27T15:42:35.054Z,14.20
2022-11-27T15:43:06.073Z,15.10
2022-11-27T15:43:37.650Z,15.80
2022-11-27T15:44:08.778Z,15.00
2022-11-27T15:44:40.313Z,15.30
2022-11-27T15:45:11.561Z,15.10
2022-11-27T15:45:43.112Z,15.90
2022-11-27T15:46:14.431Z,16.40
2022-11-27T15:46:45.648Z,23.10
2022-11-27T15:47:16.687Z,19.40
2022-11-27T15:47:47.752Z,16.20
2022-11-27T15:48:18.952Z,17.50
2022-11-27T15:48:49.885Z,17.80
2022-11-27T15:49:21.046Z,15.60
2022-11-27T15:49:52.048Z,14.80
2022-11-27T15:50:23.048Z,16.00
2022-11-27T15:50:54.239Z,16.60
2022-11-27T15:51:25.249Z,16.40
2022-11-27T15:51:56.248Z,16.20
2022-11-27T15:52:27.398Z,15.60
2022-11-27T15:52:58.512Z,15.30
2022-11-27T15:53:29.341Z,16.00
2022-11-27T15:54:00.359Z,14.40
2022-11-27T15:54:31.390Z,17.30
2022-11-27T15:55:02.279Z,16.20
2022-11-27T15:55:33.534Z,16.20
2022-11-27T15:56:04.921Z,17.00
2022-11-27T15:56:36.099Z,16.80
2022-11-27T15:57:07.151Z,17.10
2022-11-27T15:57:38.031Z,16.40
2022-11-27T15:58:09.054Z,16.50
2022-11-27T15:58:40.194Z,16.40
2022-11-27T15:59:11.334Z,16.90
2022-11-27T15:59:42.298Z,16.20
2022-11-27T16:00:13.389Z,16.90
2022-11-27T16:00:44.425Z,17.00
2022-11-27T16:01:15.740Z,16.70
2022-11-27T16:01:46.724Z,16.40
2022-11-27T16:02:18.439Z,16.60
2022-11-27T16:02:49.627Z,17.00
2022-11-27T16:03:20.635Z,17.10
2022-11-27T16:03:51.732Z,17.20
2022-11-27T16:04:22.973Z,16.10
2022-11-27T16:04:54.091Z,16.80
2022-11-27T16:05:24.946Z,16.40
2022-11-27T16:05:55.850Z,16.60
2022-11-27T16:06:26.736Z,16.00
2022-11-27T16:06:57.817Z,16.20
2022-11-27T16:07:28.720Z,16.20
2022-11-27T16:07:59.728Z,15.90
2022-11-27T16:08:30.692Z,15.00
2022-11-27T16:09:01.676Z,16.20
2022-11-27T16:09:32.928Z,15.30
2022-11-27T16:10:03.955Z,15.80
2022-11-27T16:10:35.094Z,14.90
2022-11-27T16:11:06.222Z,15.80
2022-11-27T16:11:37.077Z,17.70
2022-11-27T16:12:08.625Z,17.40
2022-11-27T16:12:39.922Z,16.20
2022-11-27T16:13:11.333Z,16.30
2022-11-27T16:13:42.852Z,15.60
2022-11-27T16:14:13.744Z,16.10
2022-11-27T16:14:44.771Z,15.70
2022-11-27T16:15:15.798Z,16.10
2022-11-27T16:15:47.366Z,17.10
2022-11-27T16:16:18.656Z,16.20
2022-11-27T16:16:50.037Z,17.00
2022-11-27T16:17:20.974Z,16.40
2022-11-27T16:17:51.995Z,16.20
2022-11-27T16:18:23.273Z,16.40
2022-11-27T16:18:54.297Z,16.10
2022-11-27T16:19:25.366Z,15.70
2022-11-27T16:19:56.589Z,15.30
2022-11-27T16:20:27.522Z,15.00
2022-11-27T16:20:58.892Z,15.20
2022-11-27T16:21:30.327Z,15.20
2022-11-27T16:22:01.377Z,16.30
2022-11-27T16:22:32.252Z,14.90
2022-11-27T16:23:03.601Z,15.50
2022-11-27T16:23:34.818Z,15.20
2022-11-27T16:24:06.299Z,15.80
2022-11-27T16:24:37.259Z,15.40
2022-11-27T16:25:08.570Z,15.40
2022-11-27T16:25:39.524Z,15.50
2022-11-27T16:26:10.652Z,14.30
2022-11-27T16:26:41.730Z,15.70
2022-11-27T16:27:12.677Z,14.60
2022-11-27T16:27:43.569Z,15.40
2022-11-27T16:28:14.728Z,15.90
2022-11-27T16:28:45.912Z,16.40
2022-11-27T16:29:17.096Z,18.30
2022-11-27T16:29:48.870Z,19.50
2022-11-27T16:30:20.427Z,20.00
2022-11-27T16:30:52.052Z,19.60
2022-11-27T16:31:24.054Z,17.00
2022-11-27T16:31:55.216Z,15.90
2022-11-27T16:32:26.675Z,15.30
2022-11-27T16:32:57.653Z,17.30
2022-11-27T16:33:29.474Z,15.90
2022-11-27T16:34:01.012Z,15.80
2022-11-27T16:34:31.846Z,16.30
2022-11-27T16:35:02.882Z,15.70
2022-11-27T16:35:34.377Z,16.30
2022-11-27T16:36:05.478Z,16.40
2022-11-27T16:36:36.593Z,15.80
2022-11-27T16:37:07.643Z,18.20
2022-11-27T16:37:38.808Z,19.00
2022-11-27T16:38:10.767Z,16.70
2022-11-27T16:38:42.211Z,15.70
2022-11-27T16:39:13.167Z,15.60
2022-11-27T16:39:44.231Z,17.30
2022-11-27T16:40:15.689Z,16.00
2022-11-27T16:40:46.650Z,15.60
2022-11-27T16:41:17.705Z,16.10
2022-11-27T16:41:48.878Z,16.00
2022-11-27T16:42:19.889Z,15.50
2022-11-27T16:42:51.036Z,16.90
2022-11-27T16:43:22.169Z,15.60
2022-11-27T16:43:53.097Z,15.80
2022-11-27T16:44:24.038Z,17.20
2022-11-27T16:44:54.971Z,16.60
2022-11-27T16:45:25.849Z,16.40
2022-11-27T16:45:56.756Z,16.10
2022-11-27T16:46:27.606Z,15.90
2022-11-27T16:46:58.432Z,16.50
2022-11-27T16:47:33.446Z,17.80
2022-11-27T16:48:02.013Z,17.60
2022-11-27T16:48:33.180Z,17.10
2022-11-27T16:49:04.658Z,18.80
2022-11-27T16:49:35.752Z,19.60
2022-11-27T16:50:06.575Z,17.40
2022-11-27T16:50:38.070Z,17.50
2022-11-27T16:51:09.344Z,16.40
2022-11-27T16:51:40.430Z,17.40
2022-11-27T16:52:12.315Z,17.30
2022-11-27T16:52:43.243Z,17.70
2022-11-27T16:53:14.474Z,15.90
2022-11-27T16:53:45.407Z,17.60
2022-11-27T16:54:16.342Z,17.40
2022-11-27T16:54:47.284Z,16.70
2022-11-27T16:55:18.414Z,17.20
2022-11-27T16:55:49.356Z,15.80
2022-11-27T16:56:20.448Z,17.40
2022-11-27T16:56:51.354Z,19.70
2022-11-27T16:57:22.339Z,17.00
2022-11-27T16:57:53.696Z,17.60
2022-11-27T16:58:24.749Z,17.60
2022-11-27T16:59:02.299Z,16.30
2022-11-27T16:59:28.994Z,18.10
2022-11-27T17:00:00.228Z,19.70
2022-11-27T17:00:31.148Z,18.90
2022-11-27T17:01:02.313Z,18.60
2022-11-27T17:01:34.074Z,17.00
2022-11-27T17:02:05.609Z,17.30
2022-11-27T17:02:36.635Z,18.10
2022-11-27T17:03:07.616Z,16.00
2022-11-27T17:03:38.817Z,17.80
2022-11-27T17:04:09.677Z,18.40
2022-11-27T17:04:41.299Z,19.10
2022-11-27T17:05:12.651Z,18.80
2022-11-27T17:05:47.515Z,19.00
2022-11-27T17:06:16.701Z,17.90
2022-11-27T17:06:47.582Z,17.90
2022-11-27T17:07:18.652Z,18.40
2022-11-27T17:07:49.637Z,18.20
2022-11-27T17:08:20.709Z,17.80
2022-11-27T17:08:51.560Z,19.80
2022-11-27T17:09:22.732Z,19.70
2022-11-27T17:09:54.893Z,18.40
2022-11-27T17:10:25.891Z,18.20
2022-11-27T17:10:56.962Z,18.40
2022-11-27T17:11:28.337Z,18.10
2022-11-27T17:11:59.334Z,19.80
2022-11-27T17:12:30.881Z,19.80
2022-11-27T17:13:01.765Z,19.30
2022-11-27T17:13:33.213Z,21.20
2022-11-27T17:14:04.227Z,20.90
2022-11-27T17:14:35.240Z,19.90
2022-11-27T17:15:06.236Z,18.30
2022-11-27T17:15:40.571Z,18.40
2022-11-27T17:16:09.170Z,18.40
2022-11-27T17:16:40.231Z,18.80
2022-11-27T17:17:11.218Z,19.10
2022-11-27T17:17:42.352Z,19.10
2022-11-27T17:18:13.445Z,18.60
2022-11-27T17:18:44.288Z,19.40
2022-11-27T17:19:15.398Z,18.30
2022-11-27T17:19:46.380Z,17.10
2022-11-27T17:20:17.415Z,18.00
2022-11-27T17:20:48.380Z,17.10
2022-11-27T17:21:19.604Z,18.70
2022-11-27T17:21:50.669Z,18.70
2022-11-27T17:22:21.742Z,17.80
2022-11-27T17:22:52.661Z,17.80
2022-11-27T17:23:23.617Z,17.40
2022-11-27T17:23:54.813Z,16.40
2022-11-27T17:24:25.774Z,17.40
2022-11-27T17:24:56.824Z,17.90
2022-11-27T17:25:27.747Z,17.30
2022-11-27T17:25:58.806Z,18.50
2022-11-27T17:26:29.945Z,18.70
2022-11-27T17:27:01.047Z,17.90
2022-11-27T17:27:31.883Z,18.40
2022-11-27T17:28:02.860Z,17.90
2022-11-27T17:28:34.102Z,22.00
2022-11-27T17:29:05.617Z,23.30
2022-11-27T17:29:36.479Z,19.50
2022-11-27T17:30:07.389Z,18.20
2022-11-27T17:30:39.497Z,18.20
2022-11-27T17:31:10.586Z,18.30
2022-11-27T17:31:41.611Z,17.80
2022-11-27T17:32:12.952Z,17.60
2022-11-27T17:32:44.078Z,17.40
2022-11-27T17:33:15.084Z,17.00
2022-11-27T17:33:46.181Z,17.10
2022-11-27T17:34:17.049Z,16.20
2022-11-27T17:34:48.195Z,16.40
2022-11-27T17:35:19.159Z,16.90
2022-11-27T17:35:50.006Z,17.30
2022-11-27T17:36:20.911Z,18.50
2022-11-27T17:36:51.910Z,17.50
2022-11-27T17:37:22.835Z,16.20
2022-11-27T17:37:53.816Z,17.50
2022-11-27T17:38:24.682Z,16.80
2022-11-27T17:38:56.247Z,17.50
2022-11-27T17:39:27.129Z,17.10
2022-11-27T17:39:58.069Z,18.90
2022-11-27T17:40:28.879Z,18.20
2022-11-27T17:40:59.892Z,17.70
2022-11-27T17:41:30.885Z,16.70
2022-11-27T17:42:01.775Z,16.30
2022-11-27T17:42:32.666Z,17.50
2022-11-27T17:43:03.751Z,18.10
2022-11-27T17:43:34.668Z,17.90
2022-11-27T17:44:05.814Z,16.50
2022-11-27T17:44:36.784Z,17.10
2022-11-27T17:45:07.924Z,15.70
2022-11-27T17:45:39.258Z,16.70
2022-11-27T17:46:10.220Z,17.70
2022-11-27T17:46:41.102Z,16.40
2022-11-27T17:47:12.071Z,21.70
2022-11-27T17:47:43.167Z,20.90
2022-11-27T17:48:14.068Z,18.10
2022-11-27T17:48:45.242Z,17.10
2022-11-27T17:49:16.185Z,16.90
2022-11-27T17:49:47.277Z,16.40
2022-11-27T17:50:18.141Z,16.60
2022-11-27T17:50:49.434Z,16.50
2022-11-27T17:51:20.525Z,15.90
2022-11-27T17:51:51.637Z,17.50
2022-11-27T17:52:22.595Z,17.80
2022-11-27T17:52:53.894Z,17.90
2022-11-27T17:53:24.964Z,18.20
2022-11-27T17:53:55.849Z,17.60
2022-11-27T17:54:26.758Z,17.70
2022-11-27T17:54:57.905Z,17.00
2022-11-27T17:55:28.911Z,18.00
2022-11-27T17:55:59.861Z,16.40
2022-11-27T17:56:31.156Z,17.80
2022-11-27T17:57:02.070Z,17.60
2022-11-27T17:57:33.191Z,15.80
2022-11-27T17:58:04.910Z,15.80
2022-11-27T17:58:36.408Z,17.10
2022-11-27T17:59:07.270Z,16.30
2022-11-27T17:59:39.235Z,16.50
2022-11-27T18:00:10.694Z,16.10
2022-11-27T18:00:41.787Z,16.80
2022-11-27T18:01:13.307Z,16.00
2022-11-27T18:01:44.659Z,15.80
2022-11-27T18:02:16.227Z,15.30
2022-11-27T18:02:47.110Z,15.90
2022-11-27T18:03:18.324Z,15.30
2022-11-27T18:03:49.748Z,14.60
2022-11-27T18:04:21.461Z,15.20
2022-11-27T18:04:52.383Z,15.70
2022-11-27T18:05:23.385Z,15.10
2022-11-27T18:05:54.608Z,15.90
2022-11-27T18:06:25.957Z,15.30
2022-11-27T18:06:56.953Z,14.80
2022-11-27T18:07:28.135Z,14.30
2022-11-27T18:07:59.264Z,15.30
2022-11-27T18:08:30.266Z,15.80
2022-11-27T18:09:02.127Z,16.50
2022-11-27T18:09:33.572Z,15.20
2022-11-27T18:10:04.972Z,14.90
2022-11-27T18:10:36.292Z,15.50
2022-11-27T18:11:07.281Z,15.00
2022-11-27T18:11:38.449Z,15.10
2022-11-27T18:12:09.757Z,14.80
2022-11-27T18:12:40.825Z,15.60
2022-11-27T18:13:11.738Z,15.10
2022-11-27T18:13:42.644Z,15.20
2022-11-27T18:14:13.684Z,15.30
2022-11-27T18:14:44.793Z,16.30
2022-11-27T18:15:16.068Z,16.00
2022-11-27T18:15:47.051Z,16.40
2022-11-27T18:16:18.452Z,15.30
2022-11-27T18:16:49.457Z,15.00
2022-11-27T18:17:20.472Z,15.70
2022-11-27T18:17:51.358Z,16.30
2022-11-27T18:18:22.496Z,15.50
2022-11-27T18:18:53.360Z,14.70
2022-11-27T18:19:24.305Z,15.10
2022-11-27T18:19:55.270Z,14.90
2022-11-27T18:20:26.115Z,16.20
2022-11-27T18:20:57.049Z,16.10
2022-11-27T18:21:28.446Z,15.00
2022-11-27T18:21:59.450Z,15.10
2022-11-27T18:22:30.531Z,14.30
2022-11-27T18:23:01.771Z,14.80
2022-11-27T18:23:33.055Z,14.10
2022-11-27T18:24:37.049Z,13.80
2022-11-27T18:25:07.977Z,14.30
2022-11-27T18:25:39.322Z,14.90
2022-11-27T18:26:10.578Z,13.90
2022-11-27T18:27:14.422Z,14.50
2022-11-27T18:27:45.281Z,14.90
2022-11-27T18:28:16.435Z,16.10
2022-11-27T18:28:47.499Z,14.40
2022-11-27T18:29:18.563Z,14.10
2022-11-27T18:29:49.736Z,14.10
2022-11-27T18:30:21.646Z,14.10
2022-11-27T18:30:52.646Z,13.50
2022-11-27T18:31:23.726Z,14.50
2022-11-27T18:31:55.024Z,13.90
2022-11-27T18:32:25.966Z,14.40
2022-11-27T18:32:57.062Z,12.90
2022-11-27T18:33:28.104Z,13.60
2022-11-27T18:33:59.020Z,13.50
2022-11-27T18:34:30.029Z,13.80
2022-11-27T18:35:01.283Z,13.40
2022-11-27T18:35:32.384Z,14.60
2022-11-27T18:36:03.350Z,14.00
2022-11-27T18:36:34.317Z,14.40
2022-11-27T18:37:05.773Z,13.90
2022-11-27T18:37:36.644Z,14.00
2022-11-27T18:38:07.571Z,13.30
2022-11-27T18:38:38.653Z,14.70
2022-11-27T18:39:09.722Z,13.50
2022-11-27T18:39:41.184Z,13.40
2022-11-27T18:40:12.554Z,13.30
2022-11-27T18:40:43.880Z,13.70
2022-11-27T18:41:15.028Z,14.30
2022-11-27T18:41:46.269Z,13.40
2022-11-27T18:42:17.476Z,14.00
2022-11-27T18:42:48.346Z,13.70
2022-11-27T18:43:19.304Z,14.20
2022-11-27T18:43:50.176Z,14.00
2022-11-27T18:44:21.365Z,13.40
2022-11-27T18:44:52.356Z,14.30
2022-11-27T18:45:33.007Z,13.50
2022-11-27T18:45:56.367Z,14.50
2022-11-27T18:46:27.422Z,15.00
2022-11-27T18:46:58.583Z,14.60
2022-11-27T18:47:29.512Z,14.30
2022-11-27T18:48:00.953Z,14.00
2022-11-27T18:48:31.877Z,13.60
2022-11-27T18:49:02.871Z,13.10
2022-11-27T18:49:34.063Z,14.10
2022-11-27T18:50:05.511Z,13.90
2022-11-27T18:50:36.761Z,14.30
2022-11-27T18:51:07.823Z,14.10
2022-11-27T18:51:38.851Z,14.20
2022-11-27T18:52:10.414Z,15.50
2022-11-27T18:52:41.521Z,13.80
2022-11-27T18:53:12.614Z,14.70
2022-11-27T18:53:43.840Z,15.60
2022-11-27T18:54:14.957Z,14.60
2022-11-27T18:54:45.934Z,15.10
2022-11-27T18:55:16.860Z,15.00
2022-11-27T18:55:52.565Z,15.10
2022-11-27T18:56:20.976Z,15.70
2022-11-27T18:56:52.021Z,13.60
2022-11-27T18:57:22.919Z,14.00
2022-11-27T18:57:54.023Z,14.10
2022-11-27T18:58:25.283Z,14.20
2022-11-27T18:58:56.239Z,14.40
2022-11-27T18:59:27.146Z,15.00
2022-11-27T18:59:58.085Z,15.50
2022-11-27T19:00:29.043Z,14.90
2022-11-27T19:01:00.297Z,14.40
2022-11-27T19:01:35.454Z,15.00
2022-11-27T19:02:04.410Z,15.10
2022-11-27T19:02:35.567Z,14.00
2022-11-27T19:03:06.790Z,15.20
2022-11-27T19:03:42.680Z,15.00